Time;durP1;ratioP1;P1;durP2;ratioP2;P2;SDS_P1;SDS_P2;PMS_P1;PMS_P2;Temp;Humidity;BMP_temperature;BMP_pressure;BME280_temperature;BME280_humidity;BME280_pressure;Samples;Min_cycle;Max_cycle;Signal;HPM_P1;HPM_P2
2024/05/01 00:00:27;;;;;;;0.00;0.00;;;12.00;99.60;;;;;;5453657;26;20218;-79
2024/05/01 00:02:56;;;;;;;0.00;0.00;;;12.00;99.60;;;;;;5453602;26;20504;-79
2024/05/01 00:05:24;;;;;;;0.00;0.00;;;12.00;99.60;;;;;;5453322;26;20451;-79
2024/05/01 00:07:53;;;;;;;0.00;0.00;;;12.00;99.60;;;;;;5453436;26;20507;-79
2024/05/01 00:10:19;;;;;;;0.00;0.00;;;12.00;99.60;;;;;;5453484;26;20452;-79
2024/05/01 00:12:47;;;;;;;0.00;0.00;;;12.10;99.60;;;;;;5453614;26;20511;-79
2024/05/01 00:15:13;;;;;;;0.00;0.00;;;12.10;99.60;;;;;;5453429;26;20447;-79
2024/05/01 00:17:42;;;;;;;0.00;0.00;;;11.90;99.60;;;;;;5453258;26;20436;-79
2024/05/01 00:20:08;;;;;;;0.00;0.00;;;11.90;99.60;;;;;;5453154;26;20508;-79
2024/05/01 00:22:39;;;;;;;0.00;0.00;;;11.80;99.60;;;;;;5453303;26;20503;-79
2024/05/01 00:25:05;;;;;;;0.00;0.00;;;11.80;99.60;;;;;;5453358;26;21038;-79
2024/05/01 00:27:34;;;;;;;0.00;0.00;;;12.10;99.60;;;;;;5453260;26;20452;-79
2024/05/01 00:30:00;;;;;;;0.00;0.00;;;12.10;99.60;;;;;;5453139;26;20503;-79
2024/05/01 00:32:28;;;;;;;0.00;0.00;;;12.00;99.60;;;;;;5453204;26;20965;-79
2024/05/01 00:34:57;;;;;;;0.00;0.00;;;11.80;99.60;;;;;;5451847;26;20503;-79
2024/05/01 00:37:23;;;;;;;0.00;0.00;;;11.70;99.60;;;;;;5453048;26;20458;-79
2024/05/01 00:39:54;;;;;;;0.00;0.00;;;11.60;99.60;;;;;;5453049;26;20455;-79
2024/05/01 00:42:20;;;;;;;0.00;0.00;;;11.90;99.60;;;;;;5453026;26;20786;-78
2024/05/01 00:44:48;;;;;;;0.00;0.00;;;11.90;99.60;;;;;;5452990;26;20504;-79
2024/05/01 00:47:15;;;;;;;0.00;0.00;;;11.80;99.60;;;;;;5452927;26;20217;-79
2024/05/01 00:49:44;;;;;;;0.00;0.00;;;11.70;99.60;;;;;;5452949;26;20451;-79
2024/05/01 00:52:10;;;;;;;0.00;0.00;;;11.70;99.60;;;;;;5452972;26;20508;-79
2024/05/01 00:54:39;;;;;;;0.00;0.00;;;11.70;99.60;;;;;;5452914;26;20467;-79
2024/05/01 00:57:08;;;;;;;0.00;0.00;;;11.70;99.60;;;;;;5452711;26;20443;-79
2024/05/01 00:59:38;;;;;;;0.00;0.00;;;11.60;99.60;;;;;;5452692;26;20515;-79
2024/05/01 01:02:04;;;;;;;0.00;0.00;;;11.50;99.60;;;;;;5452607;26;20789;-79
2024/05/01 01:04:32;;;;;;;0.00;0.00;;;11.40;99.60;;;;;;5452429;26;20497;-79
2024/05/01 01:06:58;;;;;;;0.00;0.00;;;11.20;99.60;;;;;;5452529;26;20831;-79
2024/05/01 01:09:27;;;;;;;0.00;0.00;;;11.20;99.60;;;;;;5452437;26;20526;-79
2024/05/01 01:11:54;;;;;;;0.00;0.00;;;11.20;99.60;;;;;;5452554;26;20974;-78
2024/05/01 01:14:25;;;;;;;0.00;0.00;;;11.20;99.60;;;;;;5452351;26;20537;-79
2024/05/01 01:16:52;;;;;;;0.00;0.00;;;11.10;99.60;;;;;;5452452;26;20850;-79
2024/05/01 01:19:20;;;;;;;0.00;0.00;;;11.10;99.60;;;;;;5452203;26;20455;-79
2024/05/01 01:21:46;;;;;;;0.00;0.00;;;11.10;99.60;;;;;;5452470;26;20507;-79
2024/05/01 01:24:17;;;;;;;0.00;0.00;;;11.00;99.60;;;;;;5452306;26;21136;-79
2024/05/01 01:26:43;;;;;;;0.00;0.00;;;11.10;99.60;;;;;;5452442;26;20568;-79
2024/05/01 01:29:12;;;;;;;0.00;0.00;;;11.10;99.60;;;;;;5452272;26;20955;-79
2024/05/01 01:31:38;;;;;;;0.00;0.00;;;11.00;99.60;;;;;;5452246;26;20507;-79
2024/05/01 01:34:06;;;;;;;0.00;0.00;;;10.90;99.60;;;;;;5452033;26;20455;-79
2024/05/01 01:36:36;;;;;;;0.00;0.00;;;10.90;99.60;;;;;;5451940;26;20503;-79
2024/05/01 01:39:02;;;;;;;0.00;0.00;;;10.90;99.60;;;;;;5452069;26;20508;-79
2024/05/01 01:41:33;;;;;;;0.00;0.00;;;10.90;99.60;;;;;;5451997;26;20454;-79
2024/05/01 01:44:02;;;;;;;0.00;0.00;;;10.90;99.60;;;;;;5452212;26;20981;-79
2024/05/01 01:46:30;;;;;;;0.00;0.00;;;10.90;99.60;;;;;;5452182;26;20566;-79
2024/05/01 01:48:57;;;;;;;0.00;0.00;;;10.80;99.60;;;;;;5455737;26;20459;-79
2024/05/01 01:51:25;;;;;;;0.00;0.00;;;10.70;99.60;;;;;;5455547;26;20462;-79
2024/05/01 01:53:51;;;;;;;0.00;0.00;;;10.70;99.60;;;;;;5455310;26;20467;-79
2024/05/01 01:56:20;;;;;;;0.00;0.00;;;10.70;99.60;;;;;;5455551;26;20455;-79
2024/05/01 01:58:49;;;;;;;0.00;0.00;;;10.70;99.60;;;;;;5455417;26;20503;-79
2024/05/01 02:01:17;;;;;;;0.00;0.00;;;10.60;99.60;;;;;;5455421;26;20865;-79
2024/05/01 02:03:46;;;;;;;0.00;0.00;;;10.60;99.60;;;;;;5455184;26;20508;-79
2024/05/01 02:06:15;;;;;;;0.00;0.00;;;10.60;99.60;;;;;;5455302;26;20459;-78
2024/05/01 02:08:42;;;;;;;0.00;0.00;;;10.50;99.60;;;;;;5455227;26;20447;-79
2024/05/01 02:11:11;;;;;;;0.00;0.00;;;10.40;99.60;;;;;;5455325;26;20503;-79
2024/05/01 02:13:39;;;;;;;0.00;0.00;;;10.40;99.60;;;;;;5455156;26;20463;-79
2024/05/01 02:16:13;;;;;;;0.00;0.00;;;10.30;99.60;;;;;;5455283;26;20451;-79
2024/05/01 02:18:39;;;;;;;0.00;0.00;;;10.30;99.60;;;;;;5455075;26;20851;-79
2024/05/01 02:21:08;;;;;;;0.00;0.00;;;10.30;99.60;;;;;;5455142;26;20827;-79
2024/05/01 02:23:34;;;;;;;0.00;0.00;;;10.20;99.60;;;;;;5455113;26;20451;-79
2024/05/01 02:26:02;;;;;;;0.00;0.00;;;10.20;99.60;;;;;;5455067;26;20510;-79
2024/05/01 02:28:28;;;;;;;0.00;0.00;;;10.20;99.60;;;;;;5455117;26;20455;-79
2024/05/01 02:30:57;;;;;;;0.00;0.00;;;10.20;99.60;;;;;;5454981;26;20565;-79
2024/05/01 02:33:25;;;;;;;0.00;0.00;;;10.30;99.60;;;;;;5454863;26;20459;-79
2024/05/01 02:35:54;;;;;;;0.00;0.00;;;10.20;99.60;;;;;;5454944;26;20452;-79
2024/05/01 02:38:20;;;;;;;0.00;0.00;;;10.20;99.60;;;;;;5454725;26;20451;-78
2024/05/01 02:40:49;;;;;;;0.00;0.00;;;10.20;99.60;;;;;;5454826;26;20499;-79
2024/05/01 02:43:15;;;;;;;0.00;0.00;;;10.10;99.60;;;;;;5454849;26;20519;-79
2024/05/01 02:45:43;;;;;;;0.00;0.00;;;10.10;99.60;;;;;;5454716;26;20463;-79
2024/05/01 02:48:09;;;;;;;0.00;0.00;;;10.10;99.60;;;;;;5454794;26;20492;-80
2024/05/01 02:50:40;;;;;;;0.00;0.00;;;10.10;99.60;;;;;;5454577;26;20801;-79
2024/05/01 02:53:06;;;;;;;0.00;0.00;;;10.10;99.60;;;;;;5454703;26;20456;-79
2024/05/01 02:55:35;;;;;;;0.00;0.00;;;10.10;99.60;;;;;;5454636;26;21038;-79
2024/05/01 02:58:01;;;;;;;0.00;0.00;;;10.10;99.60;;;;;;5453728;26;20794;-80
2024/05/01 03:00:29;;;;;;;0.00;0.00;;;10.10;99.60;;;;;;5456420;26;20506;-79
2024/05/01 03:02:55;;;;;;;0.00;0.00;;;10.10;99.60;;;;;;5454792;26;20459;-79
2024/05/01 03:05:24;;;;;;;0.00;0.00;;;10.00;99.60;;;;;;5454396;26;20511;-79
2024/05/01 03:07:52;;;;;;;0.00;0.00;;;9.90;99.60;;;;;;5454539;26;20452;-79
2024/05/01 03:10:21;;;;;;;0.00;0.00;;;9.90;99.60;;;;;;5454387;26;20443;-79
2024/05/01 03:12:47;;;;;;;0.00;0.00;;;10.00;99.60;;;;;;5454440;26;20519;-79
2024/05/01 03:15:16;;;;;;;0.00;0.00;;;10.00;99.60;;;;;;5454356;26;20793;-79
2024/05/01 03:17:45;;;;;;;0.00;0.00;;;9.90;99.60;;;;;;5454327;26;20507;-78
2024/05/01 03:20:14;;;;;;;0.00;0.00;;;9.90;99.60;;;;;;5454199;26;20541;-79
2024/05/01 03:22:40;;;;;;;0.00;0.00;;;9.90;99.60;;;;;;5454197;26;20494;-79
2024/05/01 03:25:11;;;;;;;0.00;0.00;;;9.90;99.60;;;;;;5454026;26;20801;-79
2024/05/01 03:27:37;;;;;;;0.00;0.00;;;9.80;99.60;;;;;;5454277;26;20455;-79
2024/05/01 03:30:06;;;;;;;0.00;0.00;;;9.90;99.60;;;;;;5454197;26;20977;-79
2024/05/01 03:32:32;;;;;;;0.00;0.00;;;9.80;99.60;;;;;;5454178;26;20451;-79
2024/05/01 03:35:01;;;;;;;0.00;0.00;;;9.70;99.60;;;;;;5453989;26;20503;-79
2024/05/01 03:37:29;;;;;;;0.00;0.00;;;9.70;99.60;;;;;;5453837;26;20456;-79
2024/05/01 03:39:58;;;;;;;0.00;0.00;;;9.70;99.60;;;;;;5454079;26;20459;-79
2024/05/01 03:42:29;;;;;;;0.00;0.00;;;9.70;99.60;;;;;;5453910;26;20459;-79
2024/05/01 03:44:57;;;;;;;0.00;0.00;;;9.70;99.60;;;;;;5453922;26;20571;-79
2024/05/01 03:47:26;;;;;;;0.00;0.00;;;9.70;99.60;;;;;;5453836;26;20448;-79
2024/05/01 03:49:54;;;;;;;0.00;0.00;;;9.70;99.60;;;;;;5454161;26;20451;-79
2024/05/01 03:52:23;;;;;;;0.00;0.00;;;9.60;99.60;;;;;;5453739;26;20459;-79
2024/05/01 03:54:51;;;;;;;0.00;0.00;;;9.60;99.60;;;;;;5453663;26;20528;-79
2024/05/01 03:57:20;;;;;;;0.00;0.00;;;9.60;99.60;;;;;;5453688;26;20451;-79
2024/05/01 03:59:51;;;;;;;0.00;0.00;;;9.50;99.60;;;;;;5453725;26;20471;-79
2024/05/01 04:02:20;;;;;;;0.00;0.00;;;9.50;99.60;;;;;;5453807;26;20463;-79
2024/05/01 04:04:48;;;;;;;0.00;0.00;;;9.50;99.60;;;;;;5453424;26;20452;-79
2024/05/01 04:07:17;;;;;;;0.00;0.00;;;9.70;99.60;;;;;;5453302;26;20459;-79
2024/05/01 04:09:46;;;;;;;0.00;0.00;;;9.60;99.60;;;;;;5451505;26;20483;-79
2024/05/01 04:12:15;;;;;;;0.00;0.00;;;9.50;99.60;;;;;;5453473;26;20459;-78
2024/05/01 04:14:44;;;;;;;0.00;0.00;;;9.60;99.60;;;;;;5453472;26;20978;-79
2024/05/01 04:17:15;;;;;;;0.00;0.00;;;9.50;99.60;;;;;;5453310;26;20490;-79
2024/05/01 04:19:43;;;;;;;0.00;0.00;;;9.50;99.60;;;;;;5453346;26;21036;-79
2024/05/01 04:22:12;;;;;;;0.00;0.00;;;9.40;99.60;;;;;;5453391;26;20789;-79
2024/05/01 04:24:40;;;;;;;0.00;0.00;;;9.40;99.60;;;;;;5453514;26;20452;-79
2024/05/01 04:27:09;;;;;;;0.00;0.00;;;9.40;99.60;;;;;;5453474;26;20451;-79
2024/05/01 04:29:37;;;;;;;0.00;0.00;;;9.50;99.60;;;;;;5453249;26;20500;-79
2024/05/01 04:32:06;;;;;;;0.00;0.00;;;9.50;99.60;;;;;;5453236;26;20977;-79
2024/05/01 04:34:37;;;;;;;0.00;0.00;;;9.60;99.60;;;;;;5453054;26;20519;-80
2024/05/01 04:37:06;;;;;;;0.00;0.00;;;9.60;99.60;;;;;;5453237;26;20455;-79
2024/05/01 04:39:35;;;;;;;0.00;0.00;;;9.60;99.60;;;;;;5452911;26;20451;-78
2024/05/01 04:42:03;;;;;;;0.00;0.00;;;9.60;99.60;;;;;;5453064;26;20459;-79
2024/05/01 04:44:32;;;;;;;0.00;0.00;;;9.80;99.60;;;;;;5452945;26;20451;-79
2024/05/01 04:47:00;;;;;;;0.00;0.00;;;10.00;99.60;;;;;;5452885;26;20454;-79
2024/05/01 04:49:29;;;;;;;0.00;0.00;;;10.00;99.60;;;;;;5452832;26;20455;-79
2024/05/01 04:52:00;;;;;;;0.00;0.00;;;10.00;99.60;;;;;;5452962;26;20455;-79
2024/05/01 04:54:28;;;;;;;0.00;0.00;;;10.20;99.60;;;;;;5453127;26;20471;-79
2024/05/01 04:56:57;;;;;;;0.00;0.00;;;10.20;99.60;;;;;;5452764;26;20504;-79
2024/05/01 04:59:26;;;;;;;0.00;0.00;;;10.10;99.60;;;;;;5452709;26;20451;-79
2024/05/01 05:01:54;;;;;;;0.00;0.00;;;10.10;99.60;;;;;;5452781;26;20507;-79
2024/05/01 05:04:23;;;;;;;0.00;0.00;;;10.00;99.60;;;;;;5452556;26;20508;-79
2024/05/01 05:06:52;;;;;;;0.00;0.00;;;10.00;99.60;;;;;;5452662;26;20597;-79
2024/05/01 05:09:23;;;;;;;0.00;0.00;;;10.10;99.60;;;;;;5452570;26;20452;-79
2024/05/01 05:11:52;;;;;;;0.00;0.00;;;10.10;99.60;;;;;;5452671;26;20508;-79
2024/05/01 05:14:20;;;;;;;0.00;0.00;;;10.20;99.60;;;;;;5452552;26;20447;-79
2024/05/01 05:16:49;;;;;;;0.00;0.00;;;10.30;99.60;;;;;;5452596;26;20463;-79
2024/05/01 05:19:17;;;;;;;0.00;0.00;;;10.40;99.60;;;;;;5452164;26;20500;-79
2024/05/01 05:21:46;;;;;;;0.00;0.00;;;10.50;99.60;;;;;;5454350;26;20459;-79
2024/05/01 05:24:14;;;;;;;0.00;0.00;;;10.60;99.60;;;;;;5455833;26;20463;-79
2024/05/01 05:26:45;;;;;;;0.00;0.00;;;10.80;99.60;;;;;;5455921;26;20458;-79
2024/05/01 05:29:14;;;;;;;0.00;0.00;;;10.80;99.60;;;;;;5455915;26;20459;-79
2024/05/01 05:31:43;;;;;;;0.00;0.00;;;10.90;99.60;;;;;;5455820;26;20455;-80
2024/05/01 05:34:12;;;;;;;0.00;0.00;;;11.10;99.60;;;;;;5455482;26;20455;-79
2024/05/01 05:36:41;;;;;;;0.00;0.00;;;11.20;99.60;;;;;;5455734;26;20450;-79
2024/05/01 05:39:10;;;;;;;0.00;0.00;;;11.30;99.60;;;;;;5455859;26;20447;-79
2024/05/01 05:41:38;;;;;;;0.00;0.00;;;11.50;99.60;;;;;;5455680;26;20832;-79
2024/05/01 05:44:09;;;;;;;0.00;0.00;;;11.50;99.60;;;;;;5455708;26;20508;-79
2024/05/01 05:46:38;;;;;;;0.00;0.00;;;11.70;99.60;;;;;;5455345;26;20454;-79
2024/05/01 05:49:06;;;;;;;0.00;0.00;;;11.70;99.60;;;;;;5455558;26;20505;-79
2024/05/01 05:51:35;;;;;;;0.00;0.00;;;11.70;99.60;;;;;;5455320;26;20973;-79
2024/05/01 05:54:03;;;;;;;0.00;0.00;;;11.80;99.60;;;;;;5455379;26;20463;-79
2024/05/01 05:56:32;;;;;;;0.00;0.00;;;11.90;99.60;;;;;;5455452;26;20451;-79
2024/05/01 05:59:01;;;;;;;0.00;0.00;;;11.90;99.60;;;;;;5455417;26;20974;-79
2024/05/01 06:01:32;;;;;;;0.00;0.00;;;11.90;99.60;;;;;;5455531;26;20512;-80
2024/05/01 06:04:00;;;;;;;0.00;0.00;;;12.10;99.60;;;;;;5455330;26;20458;-79
2024/05/01 06:06:29;;;;;;;0.00;0.00;;;12.30;99.60;;;;;;5455392;26;20466;-79
2024/05/01 06:08:57;;;;;;;0.00;0.00;;;12.50;99.60;;;;;;5455300;26;20507;-79
2024/05/01 06:11:26;;;;;;;0.00;0.00;;;12.60;99.60;;;;;;5455229;26;20451;-79
2024/05/01 06:13:54;;;;;;;0.00;0.00;;;12.70;99.60;;;;;;5454960;26;21022;-79
2024/05/01 06:16:23;;;;;;;0.00;0.00;;;12.70;99.60;;;;;;5455465;26;20496;-79
2024/05/01 06:18:54;;;;;;;0.00;0.00;;;12.90;99.60;;;;;;5455201;26;20455;-79
2024/05/01 06:21:22;;;;;;;0.00;0.00;;;12.90;99.60;;;;;;5455473;26;20515;-79
2024/05/01 06:23:51;;;;;;;0.00;0.00;;;13.10;99.60;;;;;;5455078;26;20459;-79
2024/05/01 06:26:20;;;;;;;0.00;0.00;;;13.20;99.60;;;;;;5455094;26;20451;-79
2024/05/01 06:28:48;;;;;;;0.00;0.00;;;13.40;99.60;;;;;;5455177;26;20459;-79
2024/05/01 06:31:17;;;;;;;0.00;0.00;;;13.50;99.60;;;;;;5454907;26;20512;-80
2024/05/01 06:33:46;;;;;;;0.00;0.00;;;13.50;99.60;;;;;;5453838;26;20503;-79
2024/05/01 06:36:17;;;;;;;0.00;0.00;;;13.60;99.60;;;;;;5455018;26;20455;-79
2024/05/01 06:38:45;;;;;;;0.00;0.00;;;13.80;99.60;;;;;;5454573;26;20463;-79
2024/05/01 06:41:14;;;;;;;0.00;0.00;;;14.10;99.60;;;;;;5454807;26;20500;-78
2024/05/01 06:43:43;;;;;;;0.00;0.00;;;14.30;99.60;;;;;;5455104;26;20455;-79
2024/05/01 06:46:11;;;;;;;0.00;0.00;;;14.50;99.60;;;;;;5454700;26;20436;-79
2024/05/01 06:48:40;;;;;;;0.00;0.00;;;14.70;99.60;;;;;;5454659;26;20448;-79
2024/05/01 06:51:08;;;;;;;0.00;0.00;;;14.80;99.60;;;;;;5454735;26;20836;-79
2024/05/01 06:53:40;;;;;;;0.00;0.00;;;14.90;99.60;;;;;;5454473;26;20475;-79
2024/05/01 06:56:09;;;;;;;0.00;0.00;;;14.90;99.60;;;;;;5454811;26;20507;-79
2024/05/01 06:58:37;;;;;;;0.00;0.00;;;15.00;99.60;;;;;;5454529;26;20842;-79
2024/05/01 07:01:06;;;;;;;0.00;0.00;;;15.20;99.60;;;;;;5454476;26;20453;-79
2024/05/01 07:03:34;;;;;;;0.00;0.00;;;15.20;99.60;;;;;;5454228;26;20459;-79
2024/05/01 07:06:03;;;;;;;0.00;0.00;;;15.20;99.60;;;;;;5454379;26;20514;-78
2024/05/01 07:08:32;;;;;;;0.00;0.00;;;15.40;99.60;;;;;;5454586;26;20505;-79
2024/05/01 07:11:03;;;;;;;0.00;0.00;;;15.80;99.60;;;;;;5454373;26;20457;-79
2024/05/01 07:13:31;;;;;;;0.00;0.00;;;16.00;99.60;;;;;;5454425;26;20466;-79
2024/05/01 07:16:00;;;;;;;0.00;0.00;;;16.00;99.60;;;;;;5454344;26;20457;-79
2024/05/01 07:18:28;;;;;;;0.00;0.00;;;16.30;99.60;;;;;;5453751;26;20865;-79
2024/05/01 07:20:57;;;;;;;0.00;0.00;;;16.40;99.60;;;;;;5454149;26;20458;-79
2024/05/01 07:23:26;;;;;;;0.00;0.00;;;16.40;99.60;;;;;;5454190;26;20458;-79
2024/05/01 07:25:54;;;;;;;0.00;0.00;;;16.60;99.60;;;;;;5454186;26;20454;-79
2024/05/01 07:28:25;;;;;;;0.00;0.00;;;16.90;99.60;;;;;;5454414;26;20499;-79
2024/05/01 07:30:54;;;;;;;0.00;0.00;;;17.10;99.60;;;;;;5454179;26;20508;-78
2024/05/01 07:33:24;;;;;;;0.00;0.00;;;17.30;99.60;;;;;;5454023;26;20453;-79
2024/05/01 07:35:52;;;;;;;0.00;0.00;;;17.40;99.60;;;;;;5453988;26;20569;-79
2024/05/01 07:38:21;;;;;;;0.00;0.00;;;17.60;99.60;;;;;;5453866;26;20458;-78
2024/05/01 07:40:49;;;;;;;0.00;0.00;;;17.90;99.60;;;;;;5454142;26;20461;-78
2024/05/01 07:43:18;;;;;;;0.00;0.00;;;18.10;99.60;;;;;;5453810;26;20458;-79
2024/05/01 07:45:49;;;;;;;0.00;0.00;;;18.20;99.60;;;;;;5453964;26;20462;-78
2024/05/01 07:48:17;;;;;;;0.00;0.00;;;18.60;99.60;;;;;;5453944;26;20503;-79
2024/05/01 07:50:46;;;;;;;0.00;0.00;;;18.90;99.60;;;;;;5453800;26;20546;-78
2024/05/01 07:53:15;;;;;;;0.00;0.00;;;18.80;99.60;;;;;;5453707;26;20514;-78
2024/05/01 07:55:43;;;;;;;0.00;0.00;;;18.90;99.60;;;;;;5453651;26;20511;-79
2024/05/01 07:58:12;;;;;;;0.00;0.00;;;19.10;99.60;;;;;;5453618;26;20463;-79
2024/05/01 08:00:41;;;;;;;0.00;0.00;;;19.40;99.60;;;;;;5453776;26;20499;-79
2024/05/01 08:03:13;;;;;;;0.00;0.00;;;19.60;99.60;;;;;;5453751;26;20449;-79
2024/05/01 08:05:41;;;;;;;0.00;0.00;;;19.80;99.60;;;;;;5453634;26;20509;-78
2024/05/01 08:08:10;;;;;;;0.00;0.00;;;20.00;99.60;;;;;;5453613;26;20505;-79
2024/05/01 08:10:39;;;;;;;0.00;0.00;;;20.20;99.60;;;;;;5453358;26;20991;-79
2024/05/01 08:13:07;;;;;;;0.00;0.00;;;20.30;99.60;;;;;;5453620;26;20505;-79
2024/05/01 08:15:36;;;;;;;0.00;0.00;;;20.50;99.60;;;;;;5453495;26;21062;-79
2024/05/01 08:18:05;;;;;;;0.00;0.00;;;20.50;99.60;;;;;;5453463;26;20966;-79
2024/05/01 08:20:37;;;;;;;0.00;0.00;;;20.50;99.60;;;;;;5453251;26;20815;-78
2024/05/01 08:23:06;;;;;;;0.00;0.00;;;20.90;99.60;;;;;;5453173;26;21007;-79
2024/05/01 08:25:35;;;;;;;0.00;0.00;;;21.20;99.60;;;;;;5453198;26;20785;-78
2024/05/01 08:28:05;;;;;;;0.00;0.00;;;21.30;99.60;;;;;;5453378;26;20538;-79
2024/05/01 08:30:34;;;;;;;0.00;0.00;;;21.50;99.60;;;;;;5451546;26;20451;-79
2024/05/01 08:33:03;;;;;;;0.00;0.00;;;21.60;99.60;;;;;;5453191;26;20454;-79
2024/05/01 08:35:32;;;;;;;0.00;0.00;;;21.90;99.60;;;;;;5451953;26;20502;-79
2024/05/01 08:38:03;;;;;;;0.00;0.00;;;22.20;99.60;;;;;;5452251;26;20513;-79
2024/05/01 08:40:32;;;;;;;0.00;0.00;;;22.30;99.60;;;;;;5453164;26;20841;-78
2024/05/01 08:43:00;;;;;;;0.00;0.00;;;22.50;99.60;;;;;;5452477;26;20451;-78
2024/05/01 08:45:30;;;;;;;0.00;0.00;;;22.80;99.60;;;;;;5452101;26;20962;-79
2024/05/01 08:48:01;;;;;;;0.00;0.00;;;23.10;99.60;;;;;;5452940;26;20507;-79
2024/05/01 08:50:30;;;;;;;0.00;0.00;;;23.40;98.50;;;;;;5452828;26;20507;-79
2024/05/01 08:53:04;;;;;;;0.00;0.00;;;23.40;98.20;;;;;;5453121;26;20455;-78
2024/05/01 08:55:33;;;;;;;0.00;0.00;;;23.20;98.10;;;;;;5452272;26;20457;-79
2024/05/01 08:58:04;;;;;;;0.00;0.00;;;23.30;98.10;;;;;;5452825;26;20455;-79
2024/05/01 09:00:33;;;;;;;0.00;0.00;;;23.40;94.60;;;;;;5452671;26;20601;-79
2024/05/01 09:03:02;;;;;;;0.00;0.00;;;23.30;92.80;;;;;;5452735;26;20467;-78
2024/05/01 09:05:31;;;;;;;0.00;0.00;;;23.30;94.40;;;;;;5452599;26;21011;-78
2024/05/01 09:08:03;;;;;;;0.00;0.00;;;23.60;94.00;;;;;;5452616;26;20777;-79
2024/05/01 09:10:34;;;;;;;0.00;0.00;;;24.00;95.90;;;;;;5452637;26;20580;-79
2024/05/01 09:13:11;;;;;;;0.00;0.00;;;24.30;94.90;;;;;;5452496;26;20535;-79
2024/05/01 09:15:40;;;;;;;0.00;0.00;;;24.60;94.00;;;;;;5452551;26;20579;-79
2024/05/01 09:18:18;;;;;;;0.00;0.00;;;24.90;94.10;;;;;;5452394;26;20968;-79
2024/05/01 09:20:57;;;;;;;0.00;0.00;;;25.20;92.20;;;;;;5452166;26;20508;-79
2024/05/01 09:23:26;;;;;;;0.00;0.00;;;25.30;92.00;;;;;;5452659;26;20563;-79
2024/05/01 09:25:58;;;;;;;0.00;0.00;;;25.60;91.90;;;;;;5452317;26;20513;-79
2024/05/01 09:28:27;;;;;;;0.00;0.00;;;25.70;89.20;;;;;;5452345;26;20502;-79
2024/05/01 09:30:56;;;;;;;0.00;0.00;;;25.70;89.50;;;;;;5452265;26;20496;-80
2024/05/01 09:33:25;;;;;;;0.00;0.00;;;26.00;89.20;;;;;;5452209;26;21057;-79
2024/05/01 09:35:55;;;;;;;0.00;0.00;;;26.20;88.00;;;;;;5452231;26;20455;-79
2024/05/01 09:38:24;;;;;;;0.00;0.00;;;26.80;85.80;;;;;;5452194;26;20786;-79
2024/05/01 09:41:03;;;;;;;0.00;0.00;;;27.00;84.70;;;;;;5451960;26;20863;-79
2024/05/01 09:43:33;;;;;;;0.00;0.00;;;26.90;85.20;;;;;;5452058;26;20454;-79
2024/05/01 09:46:06;;;;;;;0.00;0.00;;;26.20;86.50;;;;;;5452086;26;20457;-79
2024/05/01 09:48:36;;;;;;;0.00;0.00;;;26.40;87.80;;;;;;5451971;26;20794;-79
2024/05/01 09:51:06;;;;;;;0.00;0.00;;;26.80;84.40;;;;;;5451741;26;20514;-79
2024/05/01 09:53:35;;;;;;;0.00;0.00;;;26.90;84.60;;;;;;5451666;26;20535;-79
2024/05/01 09:56:06;;;;;;;0.00;0.00;;;26.60;84.30;;;;;;5452083;26;20513;-79
2024/05/01 09:58:36;;;;;;;0.00;0.00;;;26.40;84.90;;;;;;5451885;26;20810;-79
2024/05/01 10:01:07;;;;;;;0.00;0.00;;;26.70;83.40;;;;;;5451651;26;20983;-79
2024/05/01 10:03:39;;;;;;;0.00;0.00;;;26.70;83.30;;;;;;5451798;26;20449;-79
2024/05/01 10:06:08;;;;;;;0.00;0.00;;;26.70;83.50;;;;;;5451427;26;20458;-79
2024/05/01 10:08:36;;;;;;;0.00;0.00;;;26.70;84.60;;;;;;5453117;26;21157;-78
2024/05/01 10:11:08;;;;;;;0.00;0.00;;;26.90;83.00;;;;;;5454963;26;20459;-79
2024/05/01 10:13:37;;;;;;;0.00;0.00;;;26.90;81.30;;;;;;5455439;26;20975;-78
2024/05/01 10:16:07;;;;;;;0.00;0.00;;;26.60;82.90;;;;;;5455294;26;20506;-78
2024/05/01 10:18:36;;;;;;;0.00;0.00;;;26.80;83.30;;;;;;5455180;26;20465;-78
2024/05/01 10:21:13;;;;;;;0.00;0.00;;;26.70;83.80;;;;;;5455030;26;20458;-79
2024/05/01 10:23:45;;;;;;;0.00;0.00;;;27.10;83.50;;;;;;5455364;26;20511;-79
2024/05/01 10:26:16;;;;;;;0.00;0.00;;;27.50;80.60;;;;;;5455303;26;20501;-78
2024/05/01 10:28:46;;;;;;;0.00;0.00;;;27.40;79.00;;;;;;5455259;26;20515;-78
2024/05/01 10:31:16;;;;;;;0.00;0.00;;;27.20;80.00;;;;;;5455093;26;20462;-79
2024/05/01 10:33:46;;;;;;;0.00;0.00;;;27.40;80.10;;;;;;5454981;26;20995;-78
2024/05/01 10:36:19;;;;;;;0.00;0.00;;;27.50;78.70;;;;;;5454740;26;20985;-78
2024/05/01 10:38:48;;;;;;;0.00;0.00;;;27.80;79.30;;;;;;5455130;26;20503;-78
2024/05/01 10:41:24;;;;;;;0.00;0.00;;;28.10;79.20;;;;;;5454939;26;20643;-79
2024/05/01 10:43:57;;;;;;;0.00;0.00;;;27.90;79.30;;;;;;5455017;26;20455;-79
2024/05/01 10:46:27;;;;;;;0.00;0.00;;;28.00;78.40;;;;;;5454929;26;20840;-79
2024/05/01 10:48:56;;;;;;;0.00;0.00;;;27.30;79.00;;;;;;5454983;26;20970;-79
2024/05/01 10:51:25;;;;;;;0.00;0.00;;;27.10;79.20;;;;;;5454564;26;21099;-79
2024/05/01 10:53:54;;;;;;;0.00;0.00;;;27.20;79.80;;;;;;5454604;26;20466;-79
2024/05/01 10:56:25;;;;;;;0.00;0.00;;;27.70;78.60;;;;;;5454749;26;20512;-78
2024/05/01 10:58:54;;;;;;;0.00;0.00;;;28.30;76.20;;;;;;5455161;26;20459;-78
2024/05/01 11:01:23;;;;;;;0.00;0.00;;;28.50;74.10;;;;;;5454482;26;20523;-78
2024/05/01 11:03:52;;;;;;;0.00;0.00;;;28.90;73.50;;;;;;5454728;26;20790;-78
2024/05/01 11:06:28;;;;;;;0.00;0.00;;;28.80;71.30;;;;;;5454528;26;20977;-79
2024/05/01 11:09:04;;;;;;;0.00;0.00;;;28.90;71.10;;;;;;5454619;26;20450;-78
2024/05/01 11:11:39;;;;;;;0.00;0.00;;;28.60;70.00;;;;;;5454493;26;20459;-78
2024/05/01 11:14:05;;;;;;;0.00;0.00;;;28.80;71.70;;;;;;5454519;26;20458;-78
2024/05/01 11:16:34;;;;;;;0.00;0.00;;;28.70;67.30;;;;;;5454396;26;20514;-78
2024/05/01 11:19:03;;;;;;;0.00;0.00;;;28.50;68.30;;;;;;5453967;26;20499;-78
2024/05/01 11:21:31;;;;;;;0.00;0.00;;;28.60;68.00;;;;;;5454084;26;20463;-78
2024/05/01 11:24:00;;;;;;;0.00;0.00;;;29.00;66.50;;;;;;5454076;26;20498;-78
2024/05/01 11:26:29;;;;;;;0.00;0.00;;;29.40;66.10;;;;;;5454224;26;20560;-78
2024/05/01 11:29:00;;;;;;;0.00;0.00;;;29.60;65.10;;;;;;5454063;26;20571;-78
2024/05/01 11:31:29;;;;;;;0.00;0.00;;;29.80;66.10;;;;;;5454208;26;20455;-78
2024/05/01 11:33:57;;;;;;;0.00;0.00;;;29.90;63.30;;;;;;5454080;26;20815;-79
2024/05/01 11:36:26;;;;;;;0.00;0.00;;;29.50;64.40;;;;;;5453780;26;20511;-78
2024/05/01 11:38:55;;;;;;;0.00;0.00;;;29.50;63.30;;;;;;5454065;26;21031;-78
2024/05/01 11:41:23;;;;;;;0.00;0.00;;;29.80;63.00;;;;;;5453811;26;20462;-78
2024/05/01 11:43:52;;;;;;;0.00;0.00;;;29.40;62.50;;;;;;5453977;26;20494;-78
2024/05/01 11:46:23;;;;;;;0.00;0.00;;;29.30;63.20;;;;;;5453860;26;20459;-78
2024/05/01 11:48:51;;;;;;;0.00;0.00;;;29.30;63.80;;;;;;5453996;26;20493;-79
2024/05/01 11:51:20;;;;;;;0.00;0.00;;;29.20;62.30;;;;;;5453598;26;20503;-78
2024/05/01 11:53:48;;;;;;;0.00;0.00;;;29.30;61.90;;;;;;5453728;26;20471;-78
2024/05/01 11:56:17;;;;;;;0.00;0.00;;;29.20;62.80;;;;;;5453968;26;20798;-78
2024/05/01 11:58:45;;;;;;;0.00;0.00;;;29.40;63.30;;;;;;5453847;26;20511;-78
2024/05/01 12:01:14;;;;;;;0.00;0.00;;;29.90;62.20;;;;;;5453797;26;20507;-79
2024/05/01 12:03:50;;;;;;;0.00;0.00;;;30.10;56.70;;;;;;5453705;26;20455;-79
2024/05/01 12:06:22;;;;;;;0.00;0.00;;;29.70;56.10;;;;;;5453587;26;20515;-79
2024/05/01 12:08:50;;;;;;;0.00;0.00;;;29.80;58.30;;;;;;5453635;26;20511;-79
2024/05/01 12:11:21;;;;;;;0.00;0.00;;;29.60;54.60;;;;;;5453536;26;20517;-78
2024/05/01 12:13:49;;;;;;;0.00;0.00;;;29.60;56.00;;;;;;5453454;26;20579;-79
2024/05/01 12:16:18;;;;;;;0.00;0.00;;;29.80;56.30;;;;;;5453424;26;20504;-79
2024/05/01 12:18:52;;;;;;;0.00;0.00;;;29.70;57.40;;;;;;5453569;26;20708;-79
2024/05/01 12:21:22;;;;;;;0.00;0.00;;;29.30;55.30;;;;;;5453312;26;20451;-78
2024/05/01 12:24:03;;;;;;;0.00;0.00;;;29.50;58.30;;;;;;5453459;26;20515;-79
2024/05/01 12:26:32;;;;;;;0.00;0.00;;;29.60;58.60;;;;;;5453434;26;20515;-78
2024/05/01 12:29:02;;;;;;;0.00;0.00;;;30.00;58.40;;;;;;5453208;26;20455;-79
2024/05/01 12:31:36;;;;;;;0.00;0.00;;;29.80;54.40;;;;;;5452026;26;21001;-79
2024/05/01 12:34:09;;;;;;;0.00;0.00;;;29.60;55.10;;;;;;5453255;26;20496;-79
2024/05/01 12:36:37;;;;;;;0.00;0.00;;;29.50;56.70;;;;;;5453127;26;20538;-79
2024/05/01 12:39:13;;;;;;;0.00;0.00;;;29.70;56.90;;;;;;5453100;26;20459;-79
2024/05/01 12:41:42;;;;;;;0.00;0.00;;;29.90;55.90;;;;;;5453088;26;21018;-78
2024/05/01 12:44:13;;;;;;;0.00;0.00;;;29.50;56.70;;;;;;5453070;26;20471;-79
2024/05/01 12:46:44;;;;;;;0.00;0.00;;;29.50;56.60;;;;;;5453162;26;20515;-79
2024/05/01 12:49:21;;;;;;;0.00;0.00;;;29.50;55.30;;;;;;5453000;26;20463;-78
2024/05/01 12:51:57;;;;;;;0.00;0.00;;;29.60;54.00;;;;;;5452923;26;20455;-78
2024/05/01 12:54:51;;;;;;;0.00;0.00;;;29.60;56.70;;;;;;5452858;26;20817;-78
2024/05/01 12:57:32;;;;;;;0.00;0.00;;;29.70;56.20;;;;;;5452974;26;20463;-78